createdAt,value
2022-08-28T00:02:07.696Z,5.95
2022-08-28T00:07:09.756Z,6.05
2022-08-28T00:12:12.445Z,6.28
2022-08-28T00:17:14.278Z,6.18
2022-08-28T00:22:16.503Z,6.13
2022-08-28T00:27:37.073Z,5.75
2022-08-28T00:32:38.896Z,5.63
2022-08-28T00:37:40.668Z,5.28
2022-08-28T00:42:43.169Z,4.72
2022-08-28T00:47:45.717Z,5.30
2022-08-28T00:52:53.031Z,5.80
2022-08-28T00:58:00.620Z,5.65
2022-08-28T01:03:05.634Z,5.28
2022-08-28T01:08:07.487Z,3.78
2022-08-28T01:13:09.704Z,5.07
2022-08-28T01:18:15.664Z,5.50
2022-08-28T01:23:32.068Z,5.57
2022-08-28T01:28:33.953Z,5.57
2022-08-28T01:33:35.799Z,4.43
2022-08-28T01:38:38.395Z,4.78
2022-08-28T01:43:41.516Z,5.10
2022-08-28T01:48:44.148Z,4.90
2022-08-28T01:53:46.785Z,4.90
2022-08-28T01:58:49.100Z,4.88
2022-08-28T02:03:53.083Z,5.10
2022-08-28T02:08:55.577Z,4.90
2022-08-28T02:13:57.491Z,4.75
2022-08-28T02:19:00.652Z,4.22
2022-08-28T02:24:03.225Z,4.63
2022-08-28T02:29:05.487Z,4.38
2022-08-28T02:34:07.511Z,4.07
2022-08-28T02:39:09.730Z,4.03
2022-08-28T02:44:11.508Z,5.15
2022-08-28T02:49:13.344Z,5.00
2022-08-28T02:54:15.128Z,5.35
2022-08-28T02:59:20.910Z,4.07
2022-08-28T03:04:22.931Z,3.80
2022-08-28T03:09:24.889Z,4.00
2022-08-28T03:14:26.714Z,4.15
2022-08-28T03:19:28.713Z,4.50
2022-08-28T03:24:30.570Z,4.00
2022-08-28T03:29:32.551Z,4.40
2022-08-28T03:34:34.325Z,3.88
2022-08-28T03:39:36.116Z,4.28
2022-08-28T03:44:39.311Z,4.93
2022-08-28T03:49:41.136Z,5.33
2022-08-28T03:54:43.515Z,5.40
2022-08-28T03:59:50.257Z,4.25
2022-08-28T04:04:52.059Z,4.85
2022-08-28T04:09:53.865Z,5.50
2022-08-28T04:14:55.659Z,5.07
2022-08-28T04:19:57.501Z,5.10
2022-08-28T04:24:59.304Z,4.30
2022-08-28T04:30:01.184Z,4.85
2022-08-28T04:35:08.091Z,4.30
2022-08-28T04:40:11.610Z,4.40
2022-08-28T04:45:13.591Z,4.97
2022-08-28T04:50:15.565Z,4.10
2022-08-28T04:55:18.239Z,4.15
2022-08-28T05:00:29.689Z,4.25
2022-08-28T05:05:31.914Z,3.38
2022-08-28T05:10:35.541Z,4.53
2022-08-28T05:20:43.649Z,4.30
2022-08-28T05:25:48.485Z,3.75
2022-08-28T05:30:51.266Z,3.55
2022-08-28T05:35:53.185Z,3.47
2022-08-28T05:40:55.363Z,4.05
2022-08-28T05:46:00.073Z,3.60
2022-08-28T05:51:14.525Z,3.55
2022-08-28T05:56:22.359Z,3.10
2022-08-28T06:01:28.546Z,2.85
2022-08-28T06:06:34.319Z,2.97
2022-08-28T06:11:38.698Z,3.05
2022-08-28T06:16:50.216Z,3.78
2022-08-28T06:21:57.179Z,3.53
2022-08-28T06:26:59.772Z,3.83
2022-08-28T06:32:04.900Z,3.38
2022-08-28T06:37:07.909Z,3.70
2022-08-28T06:42:10.556Z,3.25
2022-08-28T06:47:14.775Z,3.85
2022-08-28T06:52:16.613Z,3.20
2022-08-28T06:57:18.405Z,3.03
2022-08-28T07:02:21.373Z,3.03
2022-08-28T07:07:31.449Z,3.13
2022-08-28T07:12:34.437Z,2.90
2022-08-28T07:17:36.276Z,2.78
2022-08-28T07:22:40.979Z,2.80
2022-08-28T07:27:43.654Z,2.78
2022-08-28T07:32:49.155Z,2.90
2022-08-28T07:37:50.944Z,2.42
2022-08-28T07:43:11.127Z,2.90
2022-08-28T07:48:13.282Z,2.83
2022-08-28T07:53:15.454Z,2.60
2022-08-28T07:58:18.909Z,2.65
2022-08-28T08:03:21.188Z,2.72
2022-08-28T08:08:23.691Z,2.88
2022-08-28T08:13:26.030Z,2.83
2022-08-28T08:18:28.034Z,3.00
2022-08-28T08:23:29.845Z,2.47
2022-08-28T08:28:34.598Z,2.80
2022-08-28T08:33:38.572Z,2.45
2022-08-28T08:38:41.643Z,2.88
2022-08-28T08:44:08.871Z,2.50
2022-08-28T08:49:16.313Z,2.80
2022-08-28T08:54:20.691Z,2.20
2022-08-28T08:59:26.104Z,2.88
2022-08-28T09:04:42.907Z,2.30
2022-08-28T09:09:50.007Z,2.28
2022-08-28T09:15:09.845Z,1.80
2022-08-28T09:20:15.948Z,2.42
2022-08-28T09:25:51.846Z,2.67
2022-08-28T09:30:59.775Z,2.40
2022-08-28T09:36:29.201Z,2.50
2022-08-28T09:41:50.431Z,2.00
2022-08-28T09:46:52.932Z,2.53
2022-08-28T09:51:55.664Z,2.55
2022-08-28T09:56:57.704Z,2.60
2022-08-28T10:02:18.276Z,2.00
2022-08-28T10:07:35.045Z,2.90
2022-08-28T10:12:59.578Z,2.70
2022-08-28T10:18:22.937Z,2.25
2022-08-28T10:29:11.395Z,1.95
2022-08-28T10:34:21.695Z,2.60
2022-08-28T10:39:47.538Z,2.33
2022-08-28T10:45:04.528Z,2.53
2022-08-28T10:50:21.453Z,2.78
2022-08-28T10:55:32.287Z,1.95
2022-08-28T11:00:35.886Z,2.20
2022-08-28T11:05:49.414Z,2.70
2022-08-28T11:10:58.989Z,2.33
2022-08-28T11:16:18.674Z,2.95
2022-08-28T11:21:29.617Z,2.90
2022-08-28T11:26:54.178Z,2.95
2022-08-28T11:32:30.715Z,2.40
2022-08-28T11:37:41.117Z,2.95
2022-08-28T11:42:43.431Z,2.75
2022-08-28T11:47:49.009Z,2.40
2022-08-28T11:53:27.891Z,2.67
2022-08-28T11:58:40.796Z,3.00
2022-08-28T12:03:54.518Z,3.13
2022-08-28T12:08:59.207Z,2.78
2022-08-28T12:14:01.282Z,2.72
2022-08-28T12:19:04.300Z,2.50
2022-08-28T12:24:22.101Z,2.63
2022-08-28T12:30:03.672Z,2.97
2022-08-28T12:35:29.609Z,2.83
2022-08-28T12:40:53.451Z,3.13
2022-08-28T12:51:12.631Z,2.90
2022-08-28T12:56:17.875Z,2.67
2022-08-28T13:01:25.658Z,2.83
2022-08-28T13:06:33.322Z,2.92
2022-08-28T13:11:40.462Z,2.25
2022-08-28T13:16:46.577Z,3.42
2022-08-28T13:21:48.727Z,3.00
2022-08-28T13:27:05.419Z,3.13
2022-08-28T13:32:09.919Z,2.70
2022-08-28T13:37:45.682Z,2.95
2022-08-28T13:42:48.208Z,3.30
2022-08-28T13:47:50.138Z,3.20
2022-08-28T13:52:51.953Z,3.30
2022-08-28T13:57:54.869Z,3.28
2022-08-28T14:03:15.740Z,2.80
2022-08-28T14:08:17.598Z,3.40
2022-08-28T14:13:20.206Z,3.55
2022-08-28T14:18:23.220Z,2.55
2022-08-28T14:23:25.095Z,3.30
2022-08-28T14:28:26.948Z,2.72
2022-08-28T14:33:28.777Z,3.70
2022-08-28T14:38:36.268Z,2.90
2022-08-28T14:43:39.031Z,2.65
2022-08-28T14:48:40.819Z,2.80
2022-08-28T14:53:43.084Z,2.83
2022-08-28T14:58:45.385Z,2.80
2022-08-28T15:03:47.281Z,2.70
2022-08-28T15:08:49.221Z,2.63
2022-08-28T15:13:52.387Z,3.10
2022-08-28T15:18:55.495Z,3.25
2022-08-28T15:23:57.822Z,2.80
2022-08-28T15:29:02.996Z,2.60
2022-08-28T15:34:14.409Z,2.78
2022-08-28T15:39:34.902Z,2.70
2022-08-28T15:44:37.359Z,2.65
2022-08-28T15:49:46.773Z,2.63
2022-08-28T15:54:50.745Z,2.78
2022-08-28T15:59:52.567Z,3.22
2022-08-28T16:04:55.068Z,2.53
2022-08-28T16:09:56.855Z,2.30
2022-08-28T16:14:58.659Z,2.25
2022-08-28T16:20:00.414Z,2.53
2022-08-28T16:25:02.224Z,3.13
2022-08-28T16:30:06.137Z,2.88
2022-08-28T16:35:08.606Z,2.72
2022-08-28T16:40:11.716Z,2.93
2022-08-28T16:45:17.060Z,2.40
2022-08-28T16:50:19.419Z,2.33
2022-08-28T16:55:21.288Z,2.07
2022-08-28T17:00:24.262Z,2.17
2022-08-28T17:05:27.273Z,2.55
2022-08-28T17:10:29.163Z,2.03
2022-08-28T17:15:31.709Z,2.30
2022-08-28T17:20:52.032Z,2.38
2022-08-28T17:25:53.833Z,2.25
2022-08-28T17:30:57.278Z,1.80
2022-08-28T17:35:59.840Z,2.10
2022-08-28T17:41:06.169Z,1.80
2022-08-28T17:46:08.568Z,2.65
2022-08-28T17:51:10.418Z,2.05
2022-08-28T17:56:13.010Z,2.10
2022-08-28T18:01:25.550Z,2.23
2022-08-28T18:06:27.479Z,2.30
2022-08-28T18:11:29.481Z,1.58
2022-08-28T18:16:32.646Z,1.90
2022-08-28T18:21:34.615Z,2.10
2022-08-28T18:26:36.529Z,1.60
2022-08-28T18:31:38.457Z,2.65
2022-08-28T18:36:41.509Z,2.50
2022-08-28T18:41:44.594Z,2.83
2022-08-28T18:46:48.161Z,2.35
2022-08-28T18:51:51.134Z,2.50
2022-08-28T18:56:58.412Z,2.80
2022-08-28T19:02:03.562Z,2.75
2022-08-28T19:07:06.077Z,2.80
2022-08-28T19:12:08.307Z,2.47
2022-08-28T19:17:10.173Z,2.38
2022-08-28T19:22:12.028Z,2.38
2022-08-28T19:27:15.434Z,2.25
2022-08-28T19:32:17.232Z,2.65
2022-08-28T19:37:19.049Z,2.88
2022-08-28T19:42:20.990Z,2.20
2022-08-28T19:47:23.540Z,2.10
2022-08-28T19:52:25.334Z,1.90
2022-08-28T19:57:27.228Z,2.38
2022-08-28T20:02:29.561Z,1.92
2022-08-28T20:07:31.417Z,2.08
2022-08-28T20:12:33.850Z,1.50
2022-08-28T20:17:37.400Z,2.40
2022-08-28T20:22:45.824Z,2.30
2022-08-28T20:27:47.630Z,1.70
2022-08-28T20:32:49.400Z,1.90
2022-08-28T20:37:51.527Z,1.73
2022-08-28T20:42:53.301Z,1.88
2022-08-28T20:47:55.258Z,1.90
2022-08-28T20:52:57.031Z,1.85
2022-08-28T20:57:58.803Z,1.77
2022-08-28T21:03:00.597Z,1.70
2022-08-28T21:08:02.848Z,1.50
2022-08-28T21:13:05.638Z,1.50
2022-08-28T21:18:10.466Z,1.20
2022-08-28T21:23:14.107Z,1.45
2022-08-28T21:28:16.050Z,1.25
2022-08-28T21:33:17.980Z,1.20
2022-08-28T21:38:19.794Z,1.20
2022-08-28T21:43:21.566Z,1.58
2022-08-28T21:48:24.379Z,1.60
2022-08-28T21:53:26.424Z,1.60
2022-08-28T21:58:28.268Z,1.35
2022-08-28T22:03:30.974Z,1.50
2022-08-28T22:08:32.779Z,1.42
2022-08-28T22:13:34.711Z,1.27
2022-08-28T22:18:36.752Z,1.05
2022-08-28T22:23:38.556Z,1.40
2022-08-28T22:28:40.445Z,1.40
2022-08-28T22:33:43.065Z,1.10
2022-08-28T22:38:49.734Z,1.30
2022-08-28T22:43:55.099Z,1.10
2022-08-28T22:48:56.885Z,1.40
2022-08-28T22:53:58.747Z,1.17
2022-08-28T22:59:00.655Z,1.27
2022-08-28T23:04:02.902Z,1.20
2022-08-28T23:09:04.981Z,1.58
2022-08-28T23:14:06.944Z,1.20
2022-08-28T23:19:10.337Z,1.33
2022-08-28T23:24:18.538Z,1.55
2022-08-28T23:29:20.495Z,1.30
2022-08-28T23:34:22.293Z,1.40
2022-08-28T23:39:24.931Z,1.13
2022-08-28T23:44:29.652Z,1.27
2022-08-28T23:49:32.892Z,1.70
2022-08-28T23:54:34.683Z,1.50
2022-08-28T23:59:36.771Z,1.60
